San Jose, CA (95101)

8:37 AM PDT on March 30, 2017 (GMT -0700)
Guadalupe River Park | | Change Station

Elev 26 ft 37.34 °N, 121.90 °W | Updated 4 minutes ago

Partly Cloudy
Partly Cloudy
53.1 °F
Feels Like 53.1 °F
N
12.0
Wind Variable Wind from North
Gusts 17.0 mph

Today
High -- | Low -- °F
--% Chance of Precip.
Yesterday
High -- | Low -- °F
Precip. -- in
Pressure 30.12 in
Visibility 10.0 miles
Clouds Few 100 ft
Few 800 ft
Dew Point 44 °F
Humidity 72%
Rainfall 0.00 in
Snow Depth Not available.
6:55 AM 7:28 PM
Waxing Crescent, 9% visible
METAR KSJC 301453Z 29012G23KT 10SM FEW001 FEW008 12/06 A3012 RMK AO2 RAE00 SLP198 P0000 60001 T01170061 53005 $
Pressure 30.12 in
Visibility 10.0 miles
Clouds Few 100 ft
Few 800 ft
Dew Point 44 °F
Humidity 72%
Rainfall 0.00 in
Snow Depth Not available.
6:55 AM 7:28 PM
Waxing Crescent, 9% visible
METAR KSJC 301453Z 29012G23KT 10SM FEW001 FEW008 12/06 A3012 RMK AO2 RAE00 SLP198 P0000 60001 T01170061 53005 $

Get Severe Weather Alerts

Thanks for signing up!

Be on the lookout for a verification email in your inbox.

You'll start receiving the daily forecast at 8 AM.

×

10-Day Weather Forecast

Almanac

Astronomy

Mar. 30, 2017 Rise Set
Actual Time
Civil Twilight
Nautical Twilight
Astronomical Twilight
Moon
Length of Visible Light
Length of Day
Tomorrow will be .
, % of the Moon is Illuminated

Today's Extremes

State Highs State Lows

Community

WunderPhotos

Upload Photos

1,962,540 photos uploaded!

WunderBlog® & News

Nearby

Air Quality

  Air Quality AQ Index Pollutant
Not available.

Snow Depth

Station Depth Elevation

Earthquake Activity

City Distance Mag. Time & Date
Minimum magnitude displayed is 2.5.

Earthquake Activity

City Distance Mag. Time & Date
Minimum magnitude displayed is 2.5.

Coastal Water Temperatures

Place Temperature

Stations

Nearby Weather Stations

Station Location Temp. Windchill Dew Point Humidity Wind Precip. Elev Updated Type
                   

Watches & Warnings

There are currently no watches in effect.